Time;durP1;ratioP1;P1;durP2;ratioP2;P2;SDS_P1;SDS_P2;PMS_P1;PMS_P2;Temp;Humidity;BMP_temperature;BMP_pressure;BME280_temperature;BME280_humidity;BME280_pressure;Samples;Min_cycle;Max_cycle;Signal;HPM_P1;HPM_P2
2021/09/08 00:00:30;;;;;;;11.57;10.02;;;;;;;17.35;71.88;100202.75;1087456;54;20019;-80
2021/09/08 00:01:31;;;;;;;15.15;10.63;;;;;;;17.30;71.79;100196.03;1087446;54;20026;-79
2021/09/08 00:02:35;;;;;;;14.82;10.45;;;;;;;17.45;71.54;100193.31;1087394;54;20034;-79
2021/09/08 00:03:40;;;;;;;17.52;10.45;;;;;;;17.44;71.47;100194.34;1089893;39;20663;-80
2021/09/08 00:04:41;;;;;;;11.50;9.70;;;;;;;17.43;71.26;100189.97;1087456;54;20027;-79
2021/09/08 00:05:45;;;;;;;15.00;9.35;;;;;;;17.44;71.42;100196.22;1087408;54;20093;-80
2021/09/08 00:06:47;;;;;;;13.05;9.73;;;;;;;17.44;71.26;100193.53;1089215;39;20265;-80
2021/09/08 00:07:51;;;;;;;12.10;10.50;;;;;;;17.39;71.49;100187.81;1087369;54;20042;-82
2021/09/08 00:08:55;;;;;;;11.95;9.50;;;;;;;17.41;71.63;100191.19;1087448;54;20730;-80
2021/09/08 00:09:59;;;;;;;14.27;10.00;;;;;;;17.40;71.47;100186.81;1097196;31;20592;-81
2021/09/08 00:11:01;;;;;;;11.25;9.73;;;;;;;17.43;71.57;100184.56;1087449;54;20038;-80
2021/09/08 00:12:06;;;;;;;12.93;10.77;;;;;;;17.44;71.17;100190.81;1087387;54;20170;-81
2021/09/08 00:13:11;;;;;;;12.27;9.20;;;;;;;17.48;71.10;100184.00;1087556;39;20216;-80
2021/09/08 00:14:12;;;;;;;11.88;9.20;;;;;;;17.54;70.86;100185.13;1087421;54;20039;-81
2021/09/08 00:15:17;;;;;;;14.50;9.48;;;;;;;17.53;70.91;100187.00;1087451;54;20026;-80
2021/09/08 00:16:18;;;;;;;15.68;10.50;;;;;;;17.52;71.02;100190.72;1088990;39;20681;-80
2021/09/08 00:17:22;;;;;;;13.50;10.60;;;;;;;17.48;71.00;100185.88;1087413;54;20095;-80
2021/09/08 00:18:26;;;;;;;12.70;9.45;;;;;;;17.43;71.17;100186.44;1087312;54;20060;-80
2021/09/08 00:19:28;;;;;;;10.90;9.60;;;;;;;17.32;71.81;100193.16;1087558;54;20041;-82
2021/09/08 00:20:32;;;;;;;11.45;9.70;;;;;;;17.29;71.96;100188.94;1087718;54;20026;-81
2021/09/08 00:21:34;;;;;;;13.02;9.68;;;;;;;17.39;71.74;100190.53;1087713;54;20041;-81
2021/09/08 00:22:39;;;;;;;11.40;9.02;;;;;;;17.37;71.37;100181.78;1087784;54;20030;-81
2021/09/08 00:23:40;;;;;;;13.05;9.77;;;;;;;17.30;71.99;100179.00;1087742;54;20042;-81
2021/09/08 00:24:47;;;;;;;18.35;9.90;;;;;;;17.27;71.96;100185.59;1087795;54;20034;-83
2021/09/08 00:25:48;;;;;;;12.18;10.20;;;;;;;17.26;71.95;100189.31;1087814;54;20041;-81
2021/09/08 00:26:53;;;;;;;12.25;9.90;;;;;;;17.17;72.08;100181.47;1087814;54;20030;-82
2021/09/08 00:27:57;;;;;;;15.27;11.30;;;;;;;17.10;72.36;100184.06;1087645;54;20014;-81
2021/09/08 00:28:58;;;;;;;11.75;9.40;;;;;;;17.04;72.62;100185.69;1087915;54;20037;-81
2021/09/08 00:30:02;;;;;;;14.07;11.43;;;;;;;17.08;72.68;100189.66;1087780;54;20679;-81
2021/09/08 00:31:04;;;;;;;12.75;10.30;;;;;;;17.07;72.69;100182.59;1087828;54;20034;-81
2021/09/08 00:32:09;;;;;;;12.80;9.57;;;;;;;16.99;73.02;100182.66;1087736;54;20046;-80
2021/09/08 00:33:10;;;;;;;14.02;10.65;;;;;;;17.02;72.92;100186.84;1089048;39;20634;-80
2021/09/08 00:34:14;;;;;;;13.85;10.73;;;;;;;17.01;73.04;100183.34;1087744;54;20427;-80
2021/09/08 00:35:16;;;;;;;13.35;10.45;;;;;;;17.06;72.94;100180.09;1087786;54;20034;-82
2021/09/08 00:36:20;;;;;;;13.05;10.75;;;;;;;17.04;72.73;100179.41;1087697;54;20090;-80
2021/09/08 00:37:23;;;;;;;14.35;10.55;;;;;;;17.00;72.72;100179.78;1087708;54;20035;-86
2021/09/08 00:38:27;;;;;;;13.25;10.55;;;;;;;16.92;73.30;100176.31;1087774;54;20082;-80
2021/09/08 00:39:28;;;;;;;14.52;10.52;;;;;;;16.96;73.16;100178.47;1087655;54;20031;-81
2021/09/08 00:40:35;;;;;;;12.55;10.27;;;;;;;16.98;72.90;100179.16;1087724;54;20079;-81
2021/09/08 00:41:37;;;;;;;12.68;11.38;;;;;;;16.96;73.16;100175.78;1087836;54;20398;-80
2021/09/08 00:42:41;;;;;;;13.95;9.90;;;;;;;17.03;72.69;100183.13;1087771;54;20030;-80
2021/09/08 00:43:45;;;;;;;12.55;10.75;;;;;;;16.99;72.78;100172.72;1087827;54;20034;-82
2021/09/08 01:41:35;;;;;;;12.15;7.85;;;;;;;17.55;70.50;100144.41;1089617;39;20578;-80
2021/09/08 01:42:36;;;;;;;8.98;7.20;;;;;;;17.58;70.32;100148.59;1088112;54;20122;-80
2021/09/08 01:43:52;;;;;;;8.95;7.03;;;;;;;17.51;70.85;100143.09;1088173;54;20034;-80
2021/09/08 01:45:01;;;;;;;9.38;7.68;;;;;;;17.39;71.32;100144.59;1088191;54;20622;-81
2021/09/08 01:46:05;;;;;;;9.57;7.88;;;;;;;17.38;71.26;100145.66;1088242;54;20011;-80
2021/09/08 01:47:35;;;;;;;9.23;7.75;;;;;;;17.29;71.82;100142.19;1092846;39;20603;-80
2021/09/08 01:48:37;;;;;;;10.27;7.57;;;;;;;17.22;71.67;100142.09;1096800;39;20532;-81
2021/09/08 01:50:03;;;;;;;10.85;8.75;;;;;;;17.15;72.21;100144.69;1088154;54;20046;-80
2021/09/08 01:51:05;;;;;;;13.73;9.07;;;;;;;17.15;72.05;100141.97;1088086;54;20054;-80
2021/09/08 01:52:51;;;;;;;10.00;8.50;;;;;;;17.12;72.31;100144.22;1088187;54;20026;-82
2021/09/08 01:53:53;;;;;;;10.73;8.32;;;;;;;17.20;71.74;100138.72;1088063;54;20603;-81
2021/09/08 01:54:59;;;;;;;11.13;7.82;;;;;;;17.14;71.54;100144.88;1088129;54;20038;-80
2021/09/08 01:56:00;;;;;;;11.20;8.70;;;;;;;17.04;72.28;100144.31;1088095;54;20034;-80
2021/09/08 01:57:08;;;;;;;11.93;8.25;;;;;;;17.05;72.22;100132.50;1089969;31;20749;-80
2021/09/08 01:58:10;;;;;;;11.65;8.65;;;;;;;17.11;71.93;100143.41;1094150;39;20457;-78
2021/09/08 02:01:01;;;;;;;10.85;8.20;;;;;;;17.06;72.00;100140.41;1088083;54;20019;-81
2021/09/08 02:42:11;;;;;;;10.30;7.90;;;;;;;17.18;71.09;100126.44;1086878;54;20083;-80
2021/09/08 02:43:13;;;;;;;10.18;8.25;;;;;;;17.17;71.18;100128.31;1087982;54;20034;-80
2021/09/08 02:44:34;;;;;;;10.27;7.82;;;;;;;17.12;71.50;100122.63;1088151;54;20083;-80
2021/09/08 02:45:35;;;;;;;9.25;7.55;;;;;;;17.16;71.38;100123.94;1088119;54;20026;-80
2021/09/08 02:47:22;;;;;;;9.98;7.13;;;;;;;17.12;71.25;100122.63;1088134;54;20034;-80
2021/09/08 02:48:23;;;;;;;9.52;7.47;;;;;;;17.05;71.31;100122.50;1088099;54;20038;-80
2021/09/08 02:49:29;;;;;;;10.43;8.45;;;;;;;17.06;71.44;100118.78;1088119;54;20079;-81
2021/09/08 02:50:31;;;;;;;10.68;7.97;;;;;;;17.07;71.40;100119.66;1088095;54;20071;-82
2021/09/08 02:51:35;;;;;;;10.43;8.52;;;;;;;17.04;71.50;100120.00;1088073;54;20505;-81
2021/09/08 02:52:37;;;;;;;11.77;8.80;;;;;;;16.96;71.53;100118.22;1088137;54;20749;-81
2021/09/08 02:55:29;;;;;;;9.93;8.13;;;;;;;16.85;71.64;100116.78;1087903;54;20129;-80
2021/09/08 02:56:34;;;;;;;9.00;7.30;;;;;;;16.92;71.69;100116.91;1088454;39;20649;-81
2021/09/08 02:57:46;;;;;;;9.70;8.15;;;;;;;16.88;71.98;100119.13;1088124;54;20031;-80
2021/09/08 02:58:51;;;;;;;8.77;7.05;;;;;;;16.95;71.56;100109.31;1087992;54;20078;-81
2021/09/08 03:03:28;;;;;;;8.57;7.10;;;;;;;16.93;71.42;100114.03;1087895;54;20018;-80
2021/09/08 03:04:54;;;;;;;10.02;7.45;;;;;;;16.91;71.37;100113.34;1087884;54;20043;-80
2021/09/08 03:05:59;;;;;;;8.77;7.13;;;;;;;16.94;71.33;100104.91;1087997;54;20042;-81
2021/09/08 03:07:02;;;;;;;15.48;8.50;;;;;;;16.76;71.71;100112.50;1088051;54;20022;-81
2021/09/08 03:08:07;;;;;;;13.43;9.20;;;;;;;16.74;72.31;100114.53;1087849;54;20038;-78
2021/09/08 03:09:24;;;;;;;14.15;9.20;;;;;;;16.60;72.69;100110.78;1087810;54;20082;-80
2021/09/08 03:10:35;;;;;;;11.38;8.55;;;;;;;16.55;72.89;100111.34;1088031;46;20058;-79
2021/09/08 03:11:37;;;;;;;13.75;9.68;;;;;;;16.57;72.67;100114.69;1090745;39;20646;-80
2021/09/08 03:12:42;;;;;;;13.68;9.68;;;;;;;16.37;73.17;100109.81;1088337;39;20562;-79
2021/09/08 03:14:03;;;;;;;12.80;11.10;;;;;;;16.24;73.89;100108.72;1087757;54;20027;-79
2021/09/08 03:15:11;;;;;;;13.95;10.93;;;;;;;16.18;73.78;100113.84;1088147;39;20444;-80
2021/09/08 03:16:15;;;;;;;16.23;11.05;;;;;;;16.03;74.38;100107.53;1087880;54;20056;-80
2021/09/08 03:17:37;;;;;;;12.43;9.98;;;;;;;15.87;75.07;100112.03;1087971;54;20079;-81
2021/09/08 03:18:41;;;;;;;12.25;9.35;;;;;;;15.87;74.61;100113.88;1087807;54;20030;-79
2021/09/08 03:20:10;;;;;;;12.63;9.35;;;;;;;15.84;75.08;100104.28;1088010;54;20049;-80
2021/09/08 03:21:12;;;;;;;14.18;9.90;;;;;;;15.82;74.76;100108.16;1088862;47;20046;-80
2021/09/08 03:22:32;;;;;;;12.57;10.20;;;;;;;15.80;75.45;100107.47;1087921;54;20038;-80
2021/09/08 03:23:36;;;;;;;12.95;9.45;;;;;;;15.81;74.89;100106.47;1092007;47;20052;-80
2021/09/08 03:24:46;;;;;;;11.18;9.93;;;;;;;15.72;75.11;100111.06;1087995;54;20029;-80
2021/09/08 03:25:50;;;;;;;13.15;10.27;;;;;;;15.71;75.27;100110.22;1088049;54;20035;-79
2021/09/08 03:27:15;;;;;;;11.90;9.82;;;;;;;15.63;75.63;100112.97;1087881;54;20030;-81
2021/09/08 03:28:20;;;;;;;12.75;10.32;;;;;;;15.55;75.29;100107.63;1088079;54;20027;-83
2021/09/08 03:31:09;;;;;;;12.10;9.70;;;;;;;15.48;75.32;100102.09;1090192;39;20625;-80
2021/09/08 04:06:00;;;;;;;17.88;11.52;;;;;;;14.55;78.47;100101.66;1090248;46;20038;-80
2021/09/08 04:07:03;;;;;;;12.80;10.73;;;;;;;14.52;78.38;100093.91;1088345;54;20046;-80
2021/09/08 04:08:10;;;;;;;12.77;10.77;;;;;;;14.52;78.70;100099.28;1088477;39;20703;-81
2021/09/08 04:09:12;;;;;;;16.50;11.60;;;;;;;14.56;78.34;100099.78;1088491;54;20063;-80
2021/09/08 04:10:23;;;;;;;12.35;10.30;;;;;;;14.59;78.30;100102.13;1088366;54;20030;-80
2021/09/08 04:11:25;;;;;;;14.05;11.10;;;;;;;14.64;78.09;100095.25;1088342;54;20050;-80
2021/09/08 04:12:29;;;;;;;14.88;10.57;;;;;;;14.58;78.24;100089.69;1095855;39;20416;-80
2021/09/08 04:13:31;;;;;;;12.25;10.68;;;;;;;14.57;78.14;100096.09;1088327;54;20076;-80
2021/09/08 04:16:21;;;;;;;15.05;10.80;;;;;;;14.53;78.47;100094.75;1088386;54;20078;-81
2021/09/08 04:19:23;;;;;;;13.98;11.27;;;;;;;14.54;78.58;100094.56;1088403;54;20034;-81
2021/09/08 04:20:31;;;;;;;12.00;10.63;;;;;;;14.56;78.57;100094.41;1088288;54;20027;-81
2021/09/08 04:21:38;;;;;;;13.77;10.63;;;;;;;14.53;78.56;100089.38;1088417;54;20010;-80
2021/09/08 04:22:40;;;;;;;15.07;11.60;;;;;;;14.55;78.44;100092.75;1088305;54;20085;-79
2021/09/08 04:23:44;;;;;;;15.25;11.55;;;;;;;14.54;78.45;100094.56;1088320;54;20026;-80
2021/09/08 04:24:46;;;;;;;16.30;11.65;;;;;;;14.55;78.80;100090.06;1088254;54;20038;-80
2021/09/08 04:25:50;;;;;;;13.63;11.95;;;;;;;14.54;78.80;100093.75;1088353;54;20051;-79
2021/09/08 04:26:52;;;;;;;14.63;11.27;;;;;;;14.56;78.52;100086.31;1088473;54;20030;-81
2021/09/08 04:28:16;;;;;;;13.63;11.45;;;;;;;14.54;78.83;100091.06;1088280;54;20115;-79
2021/09/08 04:29:18;;;;;;;13.00;10.80;;;;;;;14.62;78.61;100080.28;1088390;54;20018;-79
2021/09/08 04:30:24;;;;;;;11.50;9.73;;;;;;;14.69;78.21;100077.78;1088261;54;20033;-80
2021/09/08 04:31:39;;;;;;;13.82;10.73;;;;;;;14.88;77.46;100084.63;1088273;54;20031;-80
2021/09/08 04:32:43;;;;;;;15.07;10.35;;;;;;;14.88;77.35;100081.94;1088371;54;20575;-81
2021/09/08 04:33:53;;;;;;;13.25;10.52;;;;;;;14.90;77.43;100086.13;1088359;54;20063;-81
2021/09/08 04:34:58;;;;;;;12.02;10.73;;;;;;;14.97;77.26;100087.13;1088089;54;20034;-79
2021/09/08 04:36:00;;;;;;;13.60;12.20;;;;;;;15.07;76.70;100092.31;1088363;54;20042;-80
2021/09/08 04:37:07;;;;;;;14.82;13.05;;;;;;;15.11;76.69;100087.44;1088246;54;20050;-80
2021/09/08 04:38:09;;;;;;;13.90;12.50;;;;;;;15.19;76.13;100081.19;1088331;54;20038;-79
2021/09/08 04:41:25;;;;;;;16.60;13.77;;;;;;;15.19;76.07;100082.00;1088392;54;20022;-80
2021/09/08 04:42:30;;;;;;;15.73;13.00;;;;;;;15.23;75.81;100077.09;1088433;54;20029;-81
2021/09/08 04:44:06;;;;;;;14.02;12.30;;;;;;;15.28;75.44;100078.28;1088298;54;20038;-81
2021/09/08 05:06:38;;;;;;;16.27;12.05;;;;;;;14.81;77.27;100090.72;1086885;54;20042;-81
2021/09/08 05:09:14;;;;;;;15.52;11.48;;;;;;;14.69;77.12;100084.00;1088359;54;20034;-80
2021/09/08 05:12:05;;;;;;;16.02;12.25;;;;;;;14.61;77.53;100075.91;1088233;54;20604;-81
2021/09/08 05:15:24;;;;;;;16.70;11.32;;;;;;;14.57;78.13;100086.19;1088280;54;20003;-81
2021/09/08 05:16:26;;;;;;;16.05;10.55;;;;;;;14.56;77.69;100083.63;1088313;54;20038;-80
2021/09/08 05:17:32;;;;;;;15.80;11.15;;;;;;;14.57;77.81;100093.38;1088172;54;20026;-80
2021/09/08 05:18:33;;;;;;;16.00;10.88;;;;;;;14.55;77.84;100093.56;1088189;54;20042;-81
2021/09/08 05:19:38;;;;;;;15.07;11.27;;;;;;;14.54;78.17;100093.75;1088121;54;20769;-79
2021/09/08 05:20:43;;;;;;;14.60;11.07;;;;;;;14.51;78.20;100090.38;1088030;54;20026;-79
2021/09/08 05:23:52;;;;;;;12.25;10.35;;;;;;;14.54;78.21;100083.00;1095649;39;20492;-80
2021/09/08 05:24:59;;;;;;;11.55;10.00;;;;;;;14.58;77.79;100092.38;1088174;54;20030;-80
2021/09/08 05:26:01;;;;;;;14.05;10.30;;;;;;;14.57;77.54;100093.38;1088253;54;20015;-81
2021/09/08 05:27:43;;;;;;;11.05;9.60;;;;;;;14.55;77.97;100087.38;1088320;54;20639;-80
2021/09/08 05:28:45;;;;;;;11.85;10.38;;;;;;;14.51;77.70;100093.06;1088214;54;20027;-80
2021/09/08 05:30:06;;;;;;;14.30;10.63;;;;;;;14.55;77.71;100090.06;1088228;54;20038;-80
2021/09/08 05:31:08;;;;;;;13.43;10.25;;;;;;;14.57;77.33;100088.88;1088209;54;20033;-80
2021/09/08 05:32:31;;;;;;;12.43;9.30;;;;;;;14.68;77.40;100086.88;1088025;54;20051;-83
2021/09/08 05:33:33;;;;;;;12.52;9.57;;;;;;;14.73;76.95;100090.72;1088094;54;20046;-81
2021/09/08 05:34:50;;;;;;;11.90;9.55;;;;;;;14.75;77.00;100088.69;1088220;54;20051;-80
2021/09/08 05:35:52;;;;;;;12.75;10.18;;;;;;;14.76;76.97;100097.63;1088199;54;20027;-80
2021/09/08 05:39:11;;;;;;;12.77;10.95;;;;;;;14.72;77.21;100090.88;1088201;54;20082;-81
2021/09/08 05:40:18;;;;;;;12.88;10.27;;;;;;;14.75;77.16;100094.06;1088182;39;20413;-81
2021/09/08 05:41:23;;;;;;;13.32;10.57;;;;;;;14.81;77.01;100087.16;1088301;54;20035;-81
2021/09/08 05:42:27;;;;;;;11.18;9.38;;;;;;;14.86;76.77;100097.41;1094326;39;20520;-80
2021/09/08 05:43:32;;;;;;;14.43;10.15;;;;;;;14.93;76.48;100093.03;1089048;46;20015;-81
2021/09/08 05:44:56;;;;;;;11.98;10.52;;;;;;;14.94;76.38;100097.41;1088086;54;20635;-80
2021/09/08 05:45:58;;;;;;;13.88;11.13;;;;;;;14.95;76.47;100099.06;1088285;54;20022;-81
2021/09/08 05:47:04;;;;;;;13.38;10.88;;;;;;;14.93;76.57;100090.31;1088284;54;20023;-81
2021/09/08 05:48:44;;;;;;;14.20;11.43;;;;;;;14.96;76.68;100098.06;1093667;39;20500;-81
2021/09/08 05:49:46;;;;;;;13.27;10.82;;;;;;;15.01;76.25;100093.03;1088300;54;20026;-81
2021/09/08 05:51:16;;;;;;;13.13;10.38;;;;;;;15.09;75.69;100095.69;1088155;54;20034;-81
2021/09/08 05:52:18;;;;;;;12.20;9.73;;;;;;;15.18;75.53;100096.47;1088181;54;20022;-82
2021/09/08 05:53:24;;;;;;;12.45;10.80;;;;;;;15.24;75.69;100092.25;1088226;54;20050;-80
2021/09/08 05:54:26;;;;;;;14.27;10.13;;;;;;;15.38;75.07;100088.84;1088258;54;20034;-81
2021/09/08 05:56:06;;;;;;;13.35;10.90;;;;;;;15.47;75.13;100086.13;1088243;54;20047;-82
2021/09/08 05:57:13;;;;;;;11.38;9.80;;;;;;;15.55;74.67;100086.88;1088172;54;20023;-80
2021/09/08 05:58:17;;;;;;;12.30;10.30;;;;;;;15.65;74.36;100088.53;1088100;54;20023;-80
2021/09/08 05:59:23;;;;;;;11.50;9.27;;;;;;;15.74;74.36;100092.84;1088294;54;20053;-81
2021/09/08 06:00:27;;;;;;;10.88;8.82;;;;;;;15.81;74.25;100085.75;1088656;46;20746;-83
2021/09/08 06:01:50;;;;;;;10.98;8.57;;;;;;;15.87;73.96;100087.75;1088180;54;20026;-82
2021/09/08 06:02:52;;;;;;;12.13;8.77;;;;;;;15.93;73.99;100097.00;1088270;54;20055;-81
2021/09/08 06:03:58;;;;;;;15.30;9.68;;;;;;;15.89;73.77;100090.25;1088257;54;20023;-83
2021/09/08 06:05:00;;;;;;;13.90;9.60;;;;;;;15.97;73.62;100089.38;1088161;54;20058;-81
2021/09/08 06:06:14;;;;;;;13.63;9.68;;;;;;;15.97;73.27;100084.81;1088264;54;20046;-80
2021/09/08 06:07:16;;;;;;;11.90;8.32;;;;;;;16.04;73.57;100083.09;1087879;54;20041;-80
2021/09/08 06:08:30;;;;;;;10.82;8.98;;;;;;;16.05;73.11;100086.63;1088133;54;20011;-81
2021/09/08 06:09:32;;;;;;;13.60;9.55;;;;;;;16.15;73.34;100081.00;1088229;54;20043;-80
2021/09/08 06:10:38;;;;;;;10.57;8.75;;;;;;;16.21;72.75;100088.38;1088100;54;20030;-81
2021/09/08 06:12:04;;;;;;;14.57;8.95;;;;;;;16.18;72.70;100083.31;1088165;54;20034;-80
2021/09/08 06:13:11;;;;;;;11.32;8.63;;;;;;;16.25;72.58;100092.34;1088203;54;20053;-80
2021/09/08 06:14:15;;;;;;;10.30;7.78;;;;;;;16.33;72.54;100086.94;1088225;54;20030;-81
2021/09/08 06:15:48;;;;;;;10.98;8.20;;;;;;;16.35;72.57;100084.84;1088144;54;20027;-81
2021/09/08 06:16:50;;;;;;;13.80;9.30;;;;;;;16.38;72.36;100089.91;1088020;54;20059;-80
2021/09/08 06:19:41;;;;;;;17.30;10.55;;;;;;;16.35;72.25;100082.16;1088156;54;20011;-80
2021/09/08 06:20:47;;;;;;;17.75;11.20;;;;;;;16.40;72.18;100086.19;1088127;54;20027;-79
2021/09/08 06:21:49;;;;;;;15.98;10.63;;;;;;;16.45;72.08;100081.94;1088257;54;20014;-81
2021/09/08 06:23:21;;;;;;;17.17;12.13;;;;;;;16.41;71.49;100080.59;1088265;54;20030;-80
2021/09/08 06:24:23;;;;;;;15.70;11.95;;;;;;;16.44;71.49;100077.53;1098123;31;20672;-79
2021/09/08 06:25:28;;;;;;;14.60;11.27;;;;;;;16.50;71.33;100078.69;1088221;54;20081;-81
2021/09/08 06:26:30;;;;;;;14.60;11.75;;;;;;;16.51;71.36;100083.06;1088260;54;20041;-80
2021/09/08 06:27:44;;;;;;;17.92;13.35;;;;;;;16.52;70.89;100080.16;1088076;54;20030;-80
2021/09/08 06:28:51;;;;;;;15.73;12.13;;;;;;;16.56;70.88;100080.63;1088241;54;20019;-82
2021/09/08 06:29:55;;;;;;;16.10;13.52;;;;;;;16.55;70.83;100087.03;1088212;54;20026;-82
2021/09/08 06:31:21;;;;;;;13.50;11.15;;;;;;;16.57;70.17;100081.50;1088316;54;20042;-81
2021/09/08 06:32:23;;;;;;;16.45;12.60;;;;;;;16.62;70.50;100088.03;1093922;39;20609;-81
2021/09/08 06:33:29;;;;;;;14.80;11.30;;;;;;;16.68;70.20;100081.03;1088183;54;20041;-80
2021/09/08 06:34:33;;;;;;;16.42;13.25;;;;;;;16.64;69.97;100080.56;1088123;54;20030;-82
2021/09/08 06:36:17;;;;;;;17.98;13.23;;;;;;;16.63;69.36;100084.28;1088220;54;20045;-81
2021/09/08 06:37:19;;;;;;;15.65;12.20;;;;;;;16.66;69.87;100075.81;1092565;39;20622;-82
2021/09/08 06:39:06;;;;;;;14.82;13.07;;;;;;;16.65;69.10;100073.31;1088272;54;20026;-82
2021/09/08 06:40:09;;;;;;;14.63;11.55;;;;;;;16.73;69.35;100083.16;1090559;46;20014;-82
2021/09/08 06:44:53;;;;;;;16.67;13.90;;;;;;;16.71;69.42;100069.03;1088180;54;20045;-81
2021/09/08 06:46:09;;;;;;;16.27;13.18;;;;;;;16.75;68.80;100065.78;1088115;54;20050;-81
2021/09/08 06:47:11;;;;;;;16.95;13.98;;;;;;;16.78;69.29;100067.28;1088207;54;20023;-81
2021/09/08 06:51:48;;;;;;;14.63;12.65;;;;;;;16.84;68.84;100061.97;1088059;54;20018;-81
2021/09/08 06:52:54;;;;;;;15.38;11.15;;;;;;;16.97;68.35;100065.91;1092764;39;20694;-81
2021/09/08 06:53:58;;;;;;;15.02;12.82;;;;;;;16.98;68.53;100062.19;1088262;54;20034;-81
2021/09/08 06:55:37;;;;;;;15.43;11.30;;;;;;;17.07;68.23;100068.34;1088193;54;20018;-80
2021/09/08 06:56:39;;;;;;;15.00;11.65;;;;;;;17.15;67.99;100057.44;1088162;54;20051;-81
2021/09/08 06:57:45;;;;;;;13.52;11.40;;;;;;;17.22;67.75;100055.66;1093875;46;20043;-80
2021/09/08 06:58:49;;;;;;;13.73;11.32;;;;;;;17.31;67.97;100056.41;1088168;54;20062;-82
2021/09/08 07:00:26;;;;;;;13.70;11.52;;;;;;;17.36;67.46;100053.13;1088210;54;20041;-82
2021/09/08 07:01:31;;;;;;;13.30;10.55;;;;;;;17.46;67.31;100053.66;1088080;54;20034;-81
2021/09/08 07:03:07;;;;;;;11.75;9.48;;;;;;;17.53;66.90;100049.16;1089067;46;20049;-81
2021/09/08 07:04:09;;;;;;;12.20;9.23;;;;;;;17.64;66.99;100052.41;1088042;54;20058;-80
2021/09/08 07:05:29;;;;;;;14.07;10.18;;;;;;;17.70;66.37;100048.91;1087996;54;20025;-81
2021/09/08 07:06:31;;;;;;;14.02;10.18;;;;;;;17.78;66.55;100037.97;1087879;54;20599;-80
2021/09/08 07:07:35;;;;;;;10.45;9.07;;;;;;;17.87;66.50;100039.53;1087835;54;20027;-81
2021/09/08 07:08:40;;;;;;;17.80;13.95;;;;;;;17.88;66.39;100038.50;1088103;54;20046;-81
2021/09/08 07:12:04;;;;;;;14.00;10.93;;;;;;;17.89;65.89;100037.47;1088200;54;20018;-80
2021/09/08 07:13:33;;;;;;;15.25;10.60;;;;;;;17.93;65.87;100030.66;1088091;54;20065;-82
2021/09/08 07:14:35;;;;;;;12.63;9.82;;;;;;;18.05;65.93;100035.56;1088001;54;20051;-81
2021/09/08 07:15:39;;;;;;;11.05;9.23;;;;;;;18.15;65.41;100036.06;1088074;54;20023;-80
2021/09/08 07:16:43;;;;;;;14.48;10.25;;;;;;;18.18;65.08;100035.69;1088020;54;20742;-81
2021/09/08 07:17:48;;;;;;;12.88;9.65;;;;;;;18.22;65.30;100034.28;1087977;54;20046;-81
2021/09/08 07:20:56;;;;;;;11.38;9.50;;;;;;;18.20;64.90;100027.38;1088101;54;20075;-81
2021/09/08 07:21:58;;;;;;;12.40;9.52;;;;;;;18.32;65.14;100036.63;1087891;54;20772;-79
2021/09/08 07:23:30;;;;;;;13.27;10.77;;;;;;;18.35;64.56;100028.13;1091760;39;20183;-81
2021/09/08 07:24:32;;;;;;;11.05;9.50;;;;;;;18.43;64.55;100024.44;1088127;54;20035;-81
2021/09/08 07:25:52;;;;;;;12.98;10.00;;;;;;;18.44;64.21;100030.69;1088000;54;20019;-81
2021/09/08 07:28:43;;;;;;;12.15;10.07;;;;;;;18.59;64.33;100026.00;1088247;54;20010;-81
2021/09/08 07:31:36;;;;;;;14.10;11.77;;;;;;;18.61;63.38;100028.53;1088408;54;20606;-81
2021/09/08 07:32:40;;;;;;;16.00;12.02;;;;;;;18.69;63.04;100031.91;1088419;54;20642;-80
2021/09/08 07:33:58;;;;;;;17.73;12.15;;;;;;;18.73;62.90;100028.81;1088439;54;20038;-82
2021/09/08 07:34:59;;;;;;;14.82;12.10;;;;;;;18.76;63.02;100034.66;1088423;54;20030;-82
2021/09/08 07:36:04;;;;;;;13.38;10.85;;;;;;;18.93;62.94;100037.91;1088457;54;20041;-80
2021/09/08 07:37:06;;;;;;;15.70;10.82;;;;;;;18.99;62.88;100026.28;1088896;39;20578;-82
2021/09/08 07:38:11;;;;;;;12.57;10.45;;;;;;;19.09;62.43;100028.59;1089142;46;20030;-81
2021/09/08 07:39:12;;;;;;;17.52;10.82;;;;;;;19.17;62.51;100027.59;1088413;54;20022;-81
2021/09/08 07:40:58;;;;;;;16.85;11.43;;;;;;;19.22;62.05;100025.13;1088458;54;20034;-80
2021/09/08 07:42:00;;;;;;;19.80;11.48;;;;;;;19.36;62.03;100028.75;1088385;54;20018;-81
2021/09/08 07:43:27;;;;;;;18.35;10.70;;;;;;;19.48;61.59;100023.56;1088225;54;20094;-81
2021/09/08 07:44:29;;;;;;;18.33;9.25;;;;;;;19.68;61.53;100031.72;1088395;54;20062;-81
2021/09/08 07:45:49;;;;;;;17.98;10.35;;;;;;;19.78;60.75;100025.91;1088233;54;20041;-81
2021/09/08 07:46:51;;;;;;;14.45;10.00;;;;;;;19.99;60.77;100014.06;1088479;54;20027;-82
2021/09/08 07:48:04;;;;;;;16.65;9.93;;;;;;;20.14;60.25;100015.75;1089995;31;20716;-81
2021/09/08 07:49:08;;;;;;;17.08;9.75;;;;;;;20.29;59.97;100019.09;1088339;54;20627;-81
2021/09/08 07:50:29;;;;;;;19.70;10.10;;;;;;;20.34;58.63;100013.84;1088367;54;20750;-81
2021/09/08 07:51:30;;;;;;;;;;;;;;;20.31;59.15;100011.56;1091737;46;20035;-82
2021/09/08 07:52:37;;;;;;;19.75;11.50;;;;;;;20.49;58.64;100018.25;1088353;54;19947;-82
2021/09/08 07:53:38;;;;;;;17.98;10.95;;;;;;;20.65;58.85;100009.66;1089798;39;20657;-81
2021/09/08 07:54:43;;;;;;;16.98;10.30;;;;;;;20.79;58.01;100013.19;1088440;54;20019;-81
2021/09/08 07:55:47;;;;;;;14.60;10.40;;;;;;;20.84;57.66;100004.41;1088392;54;20031;-82
2021/09/08 07:57:30;;;;;;;18.40;11.23;;;;;;;20.80;55.96;100008.59;1090739;46;20026;-82
2021/09/08 07:58:32;;;;;;;13.60;11.60;;;;;;;20.88;56.68;100006.47;1088370;54;20023;-81
2021/09/08 08:00:04;;;;;;;16.42;10.80;;;;;;;21.03;55.48;100008.09;1095486;39;20595;-81
2021/09/08 08:01:06;;;;;;;14.30;11.00;;;;;;;21.03;55.54;99998.06;1088318;54;20027;-79
2021/09/08 08:02:28;;;;;;;13.00;11.02;;;;;;;21.03;54.75;100003.50;1092302;39;20724;-81
2021/09/08 08:03:35;;;;;;;15.02;11.63;;;;;;;21.17;54.73;99996.13;1088354;54;20031;-81
2021/09/08 08:04:37;;;;;;;13.75;10.65;;;;;;;21.28;54.53;99988.34;1088335;54;20026;-79
2021/09/08 08:05:57;;;;;;;14.07;10.70;;;;;;;21.31;53.31;100002.34;1088204;54;20057;-81
2021/09/08 08:06:59;;;;;;;15.13;11.75;;;;;;;21.53;54.16;99995.72;1088460;54;20034;-81
2021/09/08 08:08:04;;;;;;;13.85;11.00;;;;;;;21.73;53.40;99982.03;1088009;54;20034;-82
2021/09/08 08:09:08;;;;;;;14.88;11.65;;;;;;;21.86;53.21;99990.09;1088244;54;20035;-81
2021/09/08 08:10:52;;;;;;;13.77;11.65;;;;;;;21.91;52.00;99987.56;1088418;54;20732;-81
2021/09/08 08:11:54;;;;;;;14.45;9.68;;;;;;;22.03;52.47;99979.50;1088416;54;20030;-82
2021/09/08 08:13:21;;;;;;;12.57;10.23;;;;;;;22.14;51.87;99977.94;1088371;54;20732;-82
2021/09/08 08:14:22;;;;;;;13.57;10.05;;;;;;;22.34;52.07;99977.75;1088122;54;20033;-81
2021/09/08 08:15:30;;;;;;;12.38;10.05;;;;;;;22.48;51.30;99974.94;1088377;54;20034;-80
2021/09/08 08:16:33;;;;;;;10.88;9.63;;;;;;;22.66;51.17;99977.69;1088484;46;20025;-81
2021/09/08 08:19:26;;;;;;;11.98;9.40;;;;;;;22.92;50.67;99981.16;1088312;54;20011;-81
2021/09/08 08:20:27;;;;;;;12.77;9.43;;;;;;;23.06;50.15;99982.66;1091801;46;20058;-81
2021/09/08 08:23:49;;;;;;;12.80;9.05;;;;;;;23.26;49.40;99973.44;1088212;54;20030;-81
2021/09/08 08:24:52;;;;;;;11.70;9.02;;;;;;;23.57;49.35;99979.69;1087970;54;20034;-80
2021/09/08 08:26:22;;;;;;;10.52;8.38;;;;;;;23.72;48.52;99979.25;1088308;54;20034;-81
2021/09/08 08:27:26;;;;;;;;;;;;;;;23.63;47.96;99978.78;1088585;54;20034;-81
2021/09/08 08:28:30;;;;;;;11.00;8.32;;;;;;;23.83;48.09;99970.25;1092413;46;19950;-81
2021/09/08 08:29:32;;;;;;;13.35;9.20;;;;;;;23.89;46.94;99967.69;1088399;54;20038;-81
2021/09/08 08:30:36;;;;;;;11.18;8.20;;;;;;;24.17;47.40;99971.66;1088231;54;20664;-80
2021/09/08 08:31:38;;;;;;;10.25;8.07;;;;;;;24.29;46.13;99967.84;1088372;46;20042;-81